Marion, Utah
Current Conditions -  °F | °C
As of 6:53 AM on Friday 19 Dec 2014 (Local Time) from KEVW Reporting Station
Overcast Overcast  
Wind Chill:   Ceiling: 4100
Heat Index: 21°   Visibility: 10mi
Dew Point: 19°   Wind: 13mph
Humidity: 92%   Direction: 240°WSW
Pressure: 30.15"   Gusts: NA
Location:  40.8065°N, 110.723°W
Report Text: KEVW 191353Z AUTO 24011KT 10SM OVC041 M06/M07 A3015 RMK AO2 SLP238 T10611072
Loading
Personal Weather Stations






























Interactive Weather Map New forecast layout! Learn more

10-Day Weather Forecast

Advertisements
Track Severe Weather on mobile